createdAt,value
2022-10-28T00:00:45.027Z,100863.72
2022-10-28T00:05:49.545Z,100856.31
2022-10-28T00:10:54.748Z,100856.75
2022-10-28T00:16:04.036Z,100855.47
2022-10-28T00:21:11.444Z,100859.00
2022-10-28T00:26:16.187Z,100843.66
2022-10-28T00:31:21.098Z,100823.16
2022-10-28T00:36:27.560Z,100859.47
2022-10-28T00:41:31.777Z,100842.22
2022-10-28T00:46:46.880Z,100860.69
2022-10-28T00:51:55.005Z,100858.84
2022-10-28T00:57:00.503Z,100857.56
2022-10-28T01:02:03.538Z,100837.63
2022-10-28T01:07:07.969Z,100833.66
2022-10-28T01:12:21.230Z,100826.25
2022-10-28T01:17:32.881Z,100832.09
2022-10-28T01:22:42.413Z,100820.84
2022-10-28T01:28:07.208Z,100816.16
2022-10-28T01:33:19.304Z,100799.09
2022-10-28T01:38:34.316Z,100799.22
2022-10-28T01:43:47.231Z,100789.84
2022-10-28T01:48:58.148Z,100792.81
2022-10-28T01:54:04.731Z,100792.25
2022-10-28T01:59:10.793Z,100793.94
2022-10-28T02:04:15.277Z,100783.72
2022-10-28T02:09:28.811Z,100772.75
2022-10-28T02:14:49.344Z,100764.94
2022-10-28T02:20:05.428Z,100747.28
2022-10-28T02:25:14.293Z,100758.25
2022-10-28T02:30:21.738Z,100745.72
2022-10-28T02:35:30.669Z,100740.75
2022-10-28T02:40:36.054Z,100731.50
2022-10-28T02:45:42.529Z,100730.66
2022-10-28T02:50:51.145Z,100722.53
2022-10-28T02:55:56.572Z,100726.66
2022-10-28T03:00:59.375Z,100717.41
2022-10-28T03:06:03.616Z,100708.88
2022-10-28T03:11:06.788Z,100710.00
2022-10-28T03:16:09.819Z,100722.09
2022-10-28T03:21:13.969Z,100710.72
2022-10-28T03:26:16.830Z,100706.59
2022-10-28T03:31:19.844Z,100716.56
2022-10-28T03:36:24.019Z,100709.00
2022-10-28T03:41:26.860Z,100716.41
2022-10-28T03:46:32.248Z,100719.25
2022-10-28T03:51:39.258Z,100704.31
2022-10-28T03:56:42.054Z,100704.47
2022-10-28T04:01:45.035Z,100702.59
2022-10-28T04:06:49.246Z,100698.63
2022-10-28T04:11:52.162Z,100691.06
2022-10-28T04:16:55.010Z,100689.66
2022-10-28T04:21:59.221Z,100687.09
2022-10-28T04:27:01.960Z,100681.69
2022-10-28T04:32:04.985Z,100682.41
2022-10-28T04:37:09.156Z,100670.72
2022-10-28T04:42:11.900Z,100677.44
2022-10-28T04:47:14.637Z,100673.41
2022-10-28T04:52:18.753Z,100670.72
2022-10-28T04:57:21.570Z,100666.03
2022-10-28T05:02:24.481Z,100673.97
2022-10-28T05:07:28.862Z,100670.00
2022-10-28T05:12:31.712Z,100660.16
2022-10-28T05:17:34.604Z,100659.19
2022-10-28T05:22:39.309Z,100655.78
2022-10-28T05:27:42.133Z,100654.22
2022-10-28T05:32:44.972Z,100647.56
2022-10-28T05:37:49.281Z,100656.63
2022-10-28T05:42:52.425Z,100659.81
2022-10-28T05:47:55.799Z,100655.66
2022-10-28T05:53:00.133Z,100670.19
2022-10-28T05:58:03.682Z,100655.25
2022-10-28T06:03:09.451Z,100668.16
2022-10-28T06:08:14.208Z,100675.13
2022-10-28T06:13:15.477Z,100674.16
2022-10-28T06:18:19.021Z,100667.91
2022-10-28T06:23:24.285Z,100684.81
2022-10-28T06:28:28.025Z,100687.94
2022-10-28T06:33:31.534Z,100689.94
2022-10-28T06:38:35.862Z,100688.22
2022-10-28T06:43:38.725Z,100694.75
2022-10-28T06:48:43.131Z,100689.91
2022-10-28T06:53:49.816Z,100701.34
2022-10-28T06:58:53.019Z,100704.53
2022-10-28T07:03:55.787Z,100704.31
2022-10-28T07:08:59.927Z,100711.38
2022-10-28T07:14:02.741Z,100709.38
2022-10-28T07:19:05.690Z,100715.53
2022-10-28T07:24:10.283Z,100722.44
2022-10-28T07:29:13.123Z,100723.28
2022-10-28T07:34:15.994Z,100712.84
2022-10-28T07:39:20.592Z,100715.25
2022-10-28T07:44:23.416Z,100711.03
2022-10-28T07:49:26.263Z,100705.34
2022-10-28T07:54:31.900Z,100715.00
2022-10-28T07:59:34.709Z,100716.59
2022-10-28T08:04:37.547Z,100720.16
2022-10-28T08:09:42.200Z,100726.38
2022-10-28T08:14:44.998Z,100717.09
2022-10-28T08:19:48.294Z,100713.75
2022-10-28T08:24:52.495Z,100706.06
2022-10-28T08:29:55.263Z,100718.22
2022-10-28T08:34:58.078Z,100719.47
2022-10-28T08:40:02.217Z,100717.34
2022-10-28T08:45:21.169Z,100725.72
2022-10-28T08:50:25.922Z,100718.66
2022-10-28T08:55:35.031Z,100719.66
2022-10-28T09:00:37.884Z,100714.25
2022-10-28T09:05:42.304Z,100707.16
2022-10-28T09:11:04.534Z,100710.88
2022-10-28T09:16:16.280Z,100711.63
2022-10-28T09:21:24.750Z,100711.25
2022-10-28T09:26:42.071Z,100707.88
2022-10-28T09:31:48.408Z,100703.34
2022-10-28T09:36:55.780Z,100694.00
2022-10-28T09:42:01.887Z,100684.75
2022-10-28T09:47:14.096Z,100689.94
2022-10-28T09:52:20.982Z,100702.53
2022-10-28T09:57:30.622Z,100703.50
2022-10-28T10:02:36.022Z,100704.94
2022-10-28T10:07:44.490Z,100696.25
2022-10-28T10:12:52.393Z,100692.63
2022-10-28T10:18:00.287Z,100694.63
2022-10-28T10:23:03.040Z,100686.31
2022-10-28T10:28:16.772Z,100700.28
2022-10-28T10:33:22.735Z,100673.34
2022-10-28T10:38:27.521Z,100679.41
2022-10-28T10:43:36.430Z,100671.56
2022-10-28T10:48:39.525Z,100678.72
2022-10-28T10:53:42.522Z,100671.59
2022-10-28T10:58:52.565Z,100675.53
2022-10-28T11:03:59.955Z,100671.06
2022-10-28T11:09:05.225Z,100656.84
2022-10-28T11:14:24.292Z,100644.47
2022-10-28T11:19:30.668Z,100651.09
2022-10-28T11:24:47.904Z,100653.16
2022-10-28T11:29:52.118Z,100642.75
2022-10-28T11:35:24.221Z,100638.19
2022-10-28T11:40:35.579Z,100622.69
2022-10-28T11:45:48.682Z,100624.03
2022-10-28T11:51:11.858Z,100630.59
2022-10-28T11:56:28.255Z,100629.34
2022-10-28T12:01:45.731Z,100634.81
2022-10-28T12:07:05.994Z,100624.31
2022-10-28T12:12:18.343Z,100616.25
2022-10-28T12:17:29.790Z,100611.41
2022-10-28T12:22:38.024Z,100601.91
2022-10-28T12:27:44.685Z,100610.00
2022-10-28T12:32:51.012Z,100594.84
2022-10-28T12:38:02.050Z,100594.69
2022-10-28T12:43:11.853Z,100588.56
2022-10-28T12:48:22.551Z,100588.31
2022-10-28T12:53:35.491Z,100581.78
2022-10-28T12:58:43.058Z,100579.47
2022-10-28T13:03:47.326Z,100576.09
2022-10-28T13:09:17.692Z,100572.69
2022-10-28T13:15:06.336Z,100567.22
2022-10-28T13:20:20.461Z,100561.94
2022-10-28T13:25:39.494Z,100561.88
2022-10-28T13:30:54.070Z,100555.34
2022-10-28T13:36:11.523Z,100549.84
2022-10-28T13:41:47.941Z,100549.41
2022-10-28T13:47:26.254Z,100551.94
2022-10-28T13:52:30.374Z,100546.91
2022-10-28T13:57:36.091Z,100549.25
2022-10-28T14:02:40.864Z,100539.75
2022-10-28T14:07:57.074Z,100543.16
2022-10-28T14:13:02.770Z,100531.97
2022-10-28T14:18:37.384Z,100535.34
2022-10-28T14:24:16.517Z,100545.06
2022-10-28T14:29:30.757Z,100539.75
2022-10-28T14:34:41.884Z,100540.59
2022-10-28T14:39:58.313Z,100550.69
2022-10-28T14:45:22.464Z,100550.22
2022-10-28T14:50:30.067Z,100561.09
2022-10-28T14:55:34.995Z,100558.53
2022-10-28T15:00:47.079Z,100557.44
2022-10-28T15:05:49.895Z,100552.13
2022-10-28T15:10:52.851Z,100546.97
2022-10-28T15:15:59.435Z,100553.88
2022-10-28T15:21:09.813Z,100553.16
2022-10-28T15:26:14.363Z,100545.03
2022-10-28T15:31:18.795Z,100554.44
2022-10-28T15:36:23.346Z,100546.88
2022-10-28T15:41:49.305Z,100552.94
2022-10-28T15:46:54.369Z,100565.38
2022-10-28T15:52:22.242Z,100571.38
2022-10-28T15:57:27.711Z,100577.09
2022-10-28T16:02:56.893Z,100580.31
2022-10-28T16:08:00.495Z,100581.53
2022-10-28T16:13:07.688Z,100584.38
2022-10-28T16:18:14.987Z,100596.94
2022-10-28T16:23:18.746Z,100604.97
2022-10-28T16:28:25.754Z,100606.28
2022-10-28T16:33:33.048Z,100617.22
2022-10-28T16:38:36.036Z,100628.25
2022-10-28T16:43:38.878Z,100634.22
2022-10-28T16:48:43.025Z,100646.00
2022-10-28T16:53:49.566Z,100644.34
2022-10-28T16:58:52.337Z,100651.47
2022-10-28T17:03:56.427Z,100661.59
2022-10-28T17:09:03.563Z,100663.97
2022-10-28T17:14:06.757Z,100680.03
2022-10-28T17:19:10.884Z,100678.06
2022-10-28T17:24:13.823Z,100683.66
2022-10-28T17:29:16.556Z,100688.44
2022-10-28T17:34:20.907Z,100700.56
2022-10-28T17:39:26.422Z,100695.84
2022-10-28T17:44:29.563Z,100715.00
2022-10-28T17:49:36.312Z,100718.47
2022-10-28T17:54:39.101Z,100719.91
2022-10-28T17:59:41.821Z,100725.38
2022-10-28T18:04:45.923Z,100736.75
2022-10-28T18:09:48.739Z,100730.41
2022-10-28T18:14:51.611Z,100728.72
2022-10-28T18:19:57.658Z,100735.25
2022-10-28T18:25:00.431Z,100733.91
2022-10-28T18:30:03.174Z,100737.28
2022-10-28T18:35:08.083Z,100746.69
2022-10-28T18:40:11.811Z,100749.41
2022-10-28T18:45:14.780Z,100753.00
2022-10-28T18:50:19.032Z,100769.72
2022-10-28T18:55:21.781Z,100785.00
2022-10-28T19:00:24.687Z,100786.03
2022-10-28T19:05:28.882Z,100782.28
2022-10-28T19:10:31.707Z,100784.16
2022-10-28T19:15:39.109Z,100783.91
2022-10-28T19:20:43.257Z,100785.13
2022-10-28T19:25:55.898Z,100796.00
2022-10-28T19:31:04.300Z,100800.59
2022-10-28T19:36:14.330Z,100790.94
2022-10-28T19:41:20.376Z,100807.97
2022-10-28T19:46:23.486Z,100805.03
2022-10-28T19:51:29.422Z,100835.28
2022-10-28T19:56:34.308Z,100838.53
2022-10-28T20:01:39.278Z,100846.31
2022-10-28T20:06:43.907Z,100857.53
2022-10-28T20:11:46.663Z,100847.69
2022-10-28T20:16:49.537Z,100852.41
2022-10-28T20:21:53.748Z,100867.22
2022-10-28T20:26:56.574Z,100866.53
2022-10-28T20:31:59.393Z,100875.81
2022-10-28T20:37:03.544Z,100893.22
2022-10-28T20:42:06.371Z,100891.81
2022-10-28T20:47:09.200Z,100885.84
2022-10-28T20:52:16.551Z,100896.69
2022-10-28T20:57:19.434Z,100904.97
2022-10-28T21:02:22.333Z,100890.84
2022-10-28T21:07:26.808Z,100902.41
2022-10-28T21:12:29.567Z,100902.25
2022-10-28T21:17:32.315Z,100912.97
2022-10-28T21:22:36.600Z,100901.19
2022-10-28T21:27:39.380Z,100909.78
2022-10-28T21:32:42.142Z,100911.47
2022-10-28T21:37:49.656Z,100900.94
2022-10-28T21:42:52.554Z,100904.72
2022-10-28T21:47:55.972Z,100899.78
2022-10-28T21:53:03.835Z,100913.72
2022-10-28T21:58:07.080Z,100920.38
2022-10-28T22:03:10.363Z,100926.28
2022-10-28T22:08:14.498Z,100924.75
2022-10-28T22:13:17.316Z,100914.81
2022-10-28T22:18:20.120Z,100928.91
2022-10-28T22:23:24.581Z,100930.97
2022-10-28T22:28:27.452Z,100936.63
2022-10-28T22:33:30.293Z,100938.00
2022-10-28T22:38:34.806Z,100950.63
2022-10-28T22:43:37.702Z,100948.22
2022-10-28T22:48:40.540Z,100944.09
2022-10-28T22:53:45.327Z,100947.81
2022-10-28T22:58:48.402Z,100944.25
2022-10-28T23:03:52.990Z,100952.53
2022-10-28T23:08:57.164Z,100948.28
2022-10-28T23:13:59.962Z,100959.44
2022-10-28T23:19:02.731Z,100964.44
2022-10-28T23:24:07.755Z,100964.50
2022-10-28T23:29:10.510Z,100968.91
2022-10-28T23:34:13.272Z,100968.38
2022-10-28T23:39:17.391Z,100968.72
2022-10-28T23:44:20.111Z,100962.00
2022-10-28T23:49:22.854Z,100973.72
2022-10-28T23:54:27.151Z,100978.88
2022-10-28T23:59:29.922Z,100987.41
